Pagina principale
METAR-TAF:

METAR-TAF

Aeroporti :

Aeroporto di Bologna-Borgo Panigale

Bologna, Italia

latitudine: 44-32N, longitudine: 011-18E, altezza: 36 m

Osservazione

Il bollettino è stato emesso 54 minuti fa, alle 02:20 UTC
Vento 4 kt da est
Temperature 10°C
Umidità 100%
Pressione 1006 hPa
Visibilità: 7000 m
pioggia debole,

METAR: LIPE 020220Z AUTO 10004KT 7000 -RA OVC040/// 10/10 Q1006

Ora: 04:14 (03:14 UTC)

Previsione

Il bollettino è stato emesso 4 ore e 14 minuti fa, alle 23:00 UTC
Previsione valida dal 02 alle 00 UTC al 02 alle 24 UTC
Vento 6 kt da est
Visibilità: 8000 m
Nubi sparse ad un'altezza di 1500 ft
Nuvoloso ad un'altezza di 3000 ft
Temporaneamente
dal 02 alle 00 UTC al 02 alle 07 UTC
Visibilità: 2000 m
pioggia, foschia
Temporaneamente
dal 02 alle 12 UTC al 02 alle 17 UTC
rovesci di pioggia,

TAF: LIPE 012300Z 0200/0224 08006KT 8000 SCT015 BKN030 TEMPO 0200/0207 2000 RA BR TEMPO 0212/0217 SHRA

Osservazioni e previsioni meteorologiche di più di 4000 aeroporti (messaggi METAR e TAF).

Le stazioni disponibili sono rappresentate dai dischi gialli e rossi sulla carta.

Puntare il mouse per vedere il nome della stazione.

Clicca sopra per visualizzare le osservazioni e previsioni meteorologiche.

Per cambiare la mappa : fare clic sui pulsanti verdi con una croce nera per ingrandire, il pulsante verde con un trattino per diminuire, o sulla freccia verde per le mappe adiacenti.


METAR-TAF: